createdAt,value
2023-02-08T00:04:34.329Z,8.80
2023-02-08T00:09:38.544Z,9.60
2023-02-08T00:14:44.780Z,14.30
2023-02-08T00:19:48.848Z,8.40
2023-02-08T00:24:52.894Z,8.25
2023-02-08T00:29:58.793Z,10.10
2023-02-08T00:35:03.076Z,12.05
2023-02-08T00:40:09.771Z,10.75
2023-02-08T00:45:15.580Z,11.45
2023-02-08T00:50:19.688Z,18.00
2023-02-08T00:55:24.872Z,12.98
2023-02-08T01:00:30.840Z,18.67
2023-02-08T01:05:36.933Z,16.80
2023-02-08T01:10:41.924Z,14.98
2023-02-08T01:15:47.578Z,9.10
2023-02-08T01:20:52.991Z,11.75
2023-02-08T01:25:56.980Z,11.85
2023-02-08T01:31:07.202Z,11.82
2023-02-08T01:36:12.206Z,12.35
2023-02-08T01:41:23.399Z,12.57
2023-02-08T01:46:31.413Z,11.93
2023-02-08T01:51:39.173Z,9.68
2023-02-08T01:56:46.167Z,11.18
2023-02-08T02:01:54.352Z,10.98
2023-02-08T02:07:01.616Z,12.33
2023-02-08T02:12:08.850Z,15.10
2023-02-08T02:17:16.687Z,10.20
2023-02-08T02:23:04.455Z,16.08
2023-02-08T02:28:28.375Z,17.15
2023-02-08T02:33:42.031Z,13.20
2023-02-08T02:39:04.347Z,11.75
2023-02-08T02:44:17.099Z,11.55
2023-02-08T02:49:27.715Z,10.48
2023-02-08T02:54:37.896Z,18.75
2023-02-08T02:59:45.335Z,13.35
2023-02-08T03:04:55.754Z,11.77
2023-02-08T03:10:13.244Z,17.90
2023-02-08T03:15:25.089Z,19.70
2023-02-08T03:20:34.206Z,26.83
2023-02-08T03:25:50.064Z,16.75
2023-02-08T03:31:02.985Z,18.75
2023-02-08T03:36:19.119Z,15.20
2023-02-08T03:41:30.761Z,19.35
2023-02-08T03:46:39.131Z,21.80
2023-02-08T03:51:46.816Z,15.25
2023-02-08T03:56:59.303Z,23.08
2023-02-08T04:02:07.165Z,15.43
2023-02-08T04:07:12.632Z,26.88
2023-02-08T04:12:16.557Z,17.77
2023-02-08T04:17:21.047Z,14.30
2023-02-08T04:22:26.435Z,18.05
2023-02-08T04:27:30.587Z,20.58
2023-02-08T04:32:34.993Z,23.80
2023-02-08T04:37:40.347Z,15.73
2023-02-08T04:42:44.688Z,19.27
2023-02-08T04:47:49.149Z,16.85
2023-02-08T04:52:54.487Z,36.38
2023-02-08T04:57:59.022Z,23.95
2023-02-08T05:03:06.155Z,18.88
2023-02-08T05:08:11.556Z,18.63
2023-02-08T05:13:15.471Z,19.08
2023-02-08T05:18:19.482Z,16.92
2023-02-08T05:23:25.167Z,23.77
2023-02-08T05:28:29.751Z,21.23
2023-02-08T05:33:33.919Z,17.23
2023-02-08T05:38:39.449Z,29.63
2023-02-08T05:43:43.546Z,39.40
2023-02-08T05:48:47.548Z,19.55
2023-02-08T05:53:53.037Z,28.92
2023-02-08T05:58:57.537Z,22.45
2023-02-08T06:04:04.553Z,25.42
2023-02-08T06:09:10.034Z,25.17
2023-02-08T06:14:14.241Z,19.17
2023-02-08T06:19:18.409Z,34.38
2023-02-08T06:24:25.327Z,77.95
2023-02-08T06:29:29.377Z,93.30
2023-02-08T06:34:33.531Z,28.92
2023-02-08T06:39:41.560Z,14.60
2023-02-08T06:44:54.734Z,19.45
2023-02-08T06:49:59.680Z,19.77
2023-02-08T06:55:05.502Z,13.77
2023-02-08T07:00:10.608Z,14.95
2023-02-08T07:05:15.079Z,26.25
2023-02-08T07:10:20.982Z,29.40
2023-02-08T07:15:25.889Z,23.30
2023-02-08T07:20:31.005Z,22.38
2023-02-08T07:25:36.638Z,25.73
2023-02-08T07:30:41.130Z,24.58
2023-02-08T07:35:46.429Z,34.75
2023-02-08T07:40:51.800Z,39.00
2023-02-08T07:45:55.779Z,39.55
2023-02-08T07:51:00.112Z,46.30
2023-02-08T07:56:06.941Z,32.75
2023-02-08T08:01:21.808Z,37.97
2023-02-08T08:06:27.319Z,43.10
2023-02-08T08:11:33.448Z,39.58
2023-02-08T08:16:40.616Z,59.08
2023-02-08T08:21:45.445Z,41.42
2023-02-08T08:26:51.725Z,35.42
2023-02-08T08:31:56.919Z,27.58
2023-02-08T08:37:03.050Z,18.25
2023-02-08T08:42:16.736Z,22.52
2023-02-08T08:47:21.230Z,33.10
2023-02-08T08:52:25.857Z,19.52
2023-02-08T08:57:31.913Z,24.20
2023-02-08T09:02:36.464Z,23.88
2023-02-08T09:07:40.564Z,20.48
2023-02-08T09:12:46.193Z,16.60
2023-02-08T09:17:50.252Z,18.73
2023-02-08T09:22:55.337Z,12.93
2023-02-08T09:28:02.253Z,17.38
2023-02-08T09:33:06.804Z,10.75
2023-02-08T09:38:11.335Z,14.98
2023-02-08T09:43:24.558Z,13.30
2023-02-08T09:48:33.799Z,10.48
2023-02-08T09:53:44.215Z,8.63
2023-02-08T09:58:53.576Z,7.72
2023-02-08T10:09:07.356Z,10.55
2023-02-08T10:14:38.820Z,10.13
2023-02-08T10:19:59.765Z,7.03
2023-02-08T10:25:28.740Z,10.52
2023-02-08T10:30:41.701Z,5.85
2023-02-08T10:35:52.920Z,4.68
2023-02-08T10:41:00.164Z,3.97
2023-02-08T10:46:18.895Z,4.97
2023-02-08T10:51:26.350Z,7.93
2023-02-08T10:56:45.135Z,20.48
2023-02-08T11:01:56.117Z,10.48
2023-02-08T11:07:24.349Z,8.73
2023-02-08T11:12:30.264Z,15.40
2023-02-08T11:17:40.045Z,9.75
2023-02-08T11:22:47.704Z,6.18
2023-02-08T11:27:57.664Z,5.30
2023-02-08T11:33:29.902Z,6.80
2023-02-08T11:38:38.822Z,3.40
2023-02-08T11:43:45.358Z,9.73
2023-02-08T11:48:53.778Z,6.47
2023-02-08T11:53:58.576Z,9.90
2023-02-08T11:59:17.830Z,6.25
2023-02-08T12:04:23.594Z,9.23
2023-02-08T12:09:55.233Z,5.60
2023-02-08T12:15:08.843Z,8.05
2023-02-08T12:20:39.200Z,3.50
2023-02-08T12:25:50.929Z,13.02
2023-02-08T12:31:02.689Z,7.13
2023-02-08T12:36:25.690Z,8.32
2023-02-08T12:41:36.057Z,8.63
2023-02-08T12:46:58.329Z,4.80
2023-02-08T12:52:18.467Z,13.13
2023-02-08T12:57:30.214Z,7.15
2023-02-08T13:02:45.097Z,3.92
2023-02-08T13:07:58.672Z,6.18
2023-02-08T13:13:10.304Z,33.38
2023-02-08T13:18:22.540Z,7.72
2023-02-08T13:23:51.574Z,8.73
2023-02-08T13:29:01.266Z,5.90
2023-02-08T13:34:09.798Z,7.70
2023-02-08T13:39:36.525Z,8.48
2023-02-08T13:44:42.141Z,6.95
2023-02-08T13:49:56.036Z,7.97
2023-02-08T13:55:33.863Z,11.95
2023-02-08T14:01:05.365Z,10.27
2023-02-08T14:06:20.852Z,7.97
2023-02-08T14:11:37.769Z,13.88
2023-02-08T14:16:46.297Z,12.55
2023-02-08T14:22:01.391Z,8.07
2023-02-08T14:27:12.299Z,8.13
2023-02-08T14:32:26.537Z,15.55
2023-02-08T14:37:33.081Z,7.10
2023-02-08T14:42:58.723Z,6.97
2023-02-08T14:48:17.634Z,8.07
2023-02-08T14:53:28.574Z,13.00
2023-02-08T14:58:36.710Z,7.97
2023-02-08T15:03:43.910Z,16.23
2023-02-08T15:08:54.032Z,13.75
2023-02-08T15:14:01.983Z,14.90
2023-02-08T15:19:12.228Z,7.53
2023-02-08T15:24:19.743Z,12.30
2023-02-08T15:29:39.155Z,7.80
2023-02-08T15:34:56.526Z,11.13
2023-02-08T15:40:06.284Z,6.88
2023-02-08T15:45:24.649Z,8.13
2023-02-08T15:50:34.011Z,11.90
2023-02-08T15:55:50.358Z,10.57
2023-02-08T16:00:54.617Z,9.80
2023-02-08T16:06:05.966Z,15.68
2023-02-08T16:11:15.787Z,10.93
2023-02-08T16:16:24.594Z,10.85
2023-02-08T16:21:38.762Z,10.70
2023-02-08T16:26:46.621Z,11.25
2023-02-08T16:32:01.037Z,8.20
2023-02-08T16:37:19.092Z,12.00
2023-02-08T16:42:31.835Z,15.32
2023-02-08T16:47:41.114Z,10.73
2023-02-08T16:52:50.436Z,29.65
2023-02-08T16:57:56.767Z,12.43
2023-02-08T17:03:02.434Z,16.60
2023-02-08T17:08:13.364Z,13.95
2023-02-08T17:13:21.479Z,21.27
2023-02-08T17:18:27.351Z,8.10
2023-02-08T17:23:33.325Z,13.45
2023-02-08T17:28:41.027Z,7.68
2023-02-08T17:33:45.731Z,7.55
2023-02-08T17:38:52.550Z,7.82
2023-02-08T17:43:58.072Z,11.23
2023-02-08T17:49:05.718Z,10.10
2023-02-08T17:54:12.423Z,6.70
2023-02-08T17:59:16.367Z,12.05
2023-02-08T18:04:20.349Z,11.70
2023-02-08T18:09:25.933Z,11.98
2023-02-08T18:14:29.911Z,13.30
2023-02-08T18:19:35.129Z,4.40
2023-02-08T18:24:45.386Z,6.10
2023-02-08T18:29:49.790Z,11.02
2023-02-08T18:34:54.186Z,8.88
2023-02-08T18:40:00.240Z,10.75
2023-02-08T18:45:05.817Z,11.95
2023-02-08T18:50:10.670Z,43.60
2023-02-08T18:55:19.693Z,40.88
2023-02-08T19:05:28.226Z,26.42
2023-02-08T19:10:36.891Z,14.95
2023-02-08T19:15:42.326Z,14.63
2023-02-08T19:20:47.146Z,29.08
2023-02-08T19:25:52.552Z,14.73
2023-02-08T19:31:04.562Z,15.20
2023-02-08T19:36:12.571Z,23.70
2023-02-08T19:41:20.957Z,24.85
2023-02-08T19:51:34.895Z,27.85
2023-02-08T19:56:41.640Z,47.72
2023-02-08T20:01:50.400Z,63.90
2023-02-08T20:06:55.796Z,43.47
2023-02-08T20:12:02.174Z,17.23
2023-02-08T20:17:08.619Z,18.70
2023-02-08T20:22:12.981Z,25.13
2023-02-08T20:27:18.442Z,27.08
2023-02-08T20:32:22.801Z,43.10
2023-02-08T20:37:27.106Z,26.17
2023-02-08T20:42:33.214Z,27.83
2023-02-08T20:47:46.000Z,33.47
2023-02-08T20:52:50.783Z,18.70
2023-02-08T20:57:56.821Z,21.05
2023-02-08T21:03:01.692Z,17.83
2023-02-08T21:08:21.545Z,35.15
2023-02-08T21:13:31.276Z,17.70
2023-02-08T21:18:36.118Z,30.48
2023-02-08T21:23:40.670Z,41.63
2023-02-08T21:28:47.068Z,20.20
2023-02-08T21:33:52.203Z,15.43
2023-02-08T21:38:56.513Z,9.82
2023-02-08T21:44:03.923Z,16.33
2023-02-08T21:49:25.559Z,28.83
2023-02-08T21:54:44.397Z,80.63
2023-02-08T21:59:51.579Z,22.55
2023-02-08T22:04:56.918Z,17.60
2023-02-08T22:10:00.943Z,30.20
2023-02-08T22:15:06.704Z,46.65
2023-02-08T22:20:12.504Z,24.20
2023-02-08T22:25:16.566Z,37.50
2023-02-08T22:30:25.288Z,28.98
2023-02-08T22:35:29.634Z,40.65
2023-02-08T22:40:34.220Z,29.15
2023-02-08T22:45:40.349Z,18.00
2023-02-08T22:50:44.687Z,21.85
2023-02-08T22:55:52.876Z,12.68
2023-02-08T23:00:58.970Z,16.33
2023-02-08T23:06:06.836Z,28.67
2023-02-08T23:11:13.712Z,15.43
2023-02-08T23:16:20.587Z,9.73
2023-02-08T23:21:24.631Z,8.05
2023-02-08T23:26:29.240Z,9.32
2023-02-08T23:31:34.751Z,13.27
2023-02-08T23:36:38.733Z,12.10
2023-02-08T23:41:43.006Z,13.13
2023-02-08T23:46:48.794Z,9.88
2023-02-08T23:51:54.126Z,6.88
2023-02-08T23:56:58.685Z,12.88
